< < Back
Terminal Aerodrome Forecast


Current Version              Previous Versions:   1  2  3  4  5  6  7  8  9  

Terminal Aerodrome Forecast

384
FTUS42 KGSP 211100 CCA
TAFAND
TAF COR
KAND 211157Z 2112/2212 00000KT 6SM BR SKC
     FM211300 29003KT P6SM FEW250
     FM211800 29009G18KT P6SM FEW050 FEW250
     FM220000 30006KT P6SM FEW250=

Latest METAR

878
SAUS70 KWBC 211500 RRB
MTRAND
METAR KAND 211456Z AUTO 27007KT 10SM CLR A2999 RMK AO2 SLPNO 50006 $


USA.gov is the U.S. government's official web portal to all federal, state and local government web resources and services.